Time;durP1;ratioP1;P1;durP2;ratioP2;P2;SDS_P1;SDS_P2;PMS_P1;PMS_P2;Temp;Humidity;BMP_temperature;BMP_pressure;BME280_temperature;BME280_humidity;BME280_pressure;Samples;Min_cycle;Max_cycle;Signal;HPM_P1;HPM_P2
2023/07/29 00:00:20;;;;;;;5.70;2.20;;;16.80;99.90;;;;;;5011821;28;20618;-74
2023/07/29 00:02:45;;;;;;;7.93;1.90;;;16.60;99.90;;;;;;5011450;28;20170;-74
2023/07/29 00:05:11;;;;;;;5.00;2.10;;;16.60;99.90;;;;;;5011462;28;20178;-73
2023/07/29 00:07:37;;;;;;;6.18;2.10;;;16.60;99.90;;;;;;4996664;28;20182;-72
2023/07/29 00:10:03;;;;;;;5.75;2.17;;;16.60;99.90;;;;;;4991700;28;20223;-72
2023/07/29 00:12:29;;;;;;;3.67;1.73;;;16.50;99.90;;;;;;4991609;28;20218;-73
2023/07/29 00:14:55;;;;;;;5.70;1.83;;;;;;;;;;4991839;28;20175;-73
2023/07/29 00:17:21;;;;;;;4.70;2.00;;;16.60;99.90;;;;;;4991777;28;20246;-74
2023/07/29 00:19:47;;;;;;;6.55;1.95;;;16.60;99.90;;;;;;4991745;28;20206;-73
2023/07/29 00:22:12;;;;;;;5.82;2.20;;;16.60;99.90;;;;;;4991743;28;20183;-73
2023/07/29 00:24:40;;;;;;;5.20;1.80;;;16.60;99.90;;;;;;4991815;28;20168;-73
2023/07/29 00:27:05;;;;;;;5.00;2.00;;;16.60;99.90;;;;;;4991557;28;20271;-73
2023/07/29 00:29:31;;;;;;;7.43;2.15;;;16.60;99.90;;;;;;4991516;28;20250;-73
2023/07/29 00:31:57;;;;;;;6.18;2.20;;;16.60;99.90;;;;;;5006481;28;20269;-73
2023/07/29 00:34:22;;;;;;;10.75;2.35;;;16.60;99.90;;;;;;4991625;28;20167;-73
2023/07/29 00:36:48;;;;;;;6.88;1.77;;;16.60;99.90;;;;;;4991567;28;20642;-73
2023/07/29 00:39:13;;;;;;;4.50;2.08;;;16.60;99.90;;;;;;4991406;28;20164;-74
2023/07/29 00:41:40;;;;;;;9.38;2.40;;;16.50;99.90;;;;;;4991524;28;20179;-75
2023/07/29 00:44:05;;;;;;;5.85;1.73;;;16.50;99.90;;;;;;4991388;28;20230;-74
2023/07/29 00:46:33;;;;;;;5.18;1.83;;;16.50;99.90;;;;;;4991537;28;20831;-74
2023/07/29 00:48:58;;;;;;;6.78;1.90;;;16.40;99.90;;;;;;4991401;28;20163;-74
2023/07/29 00:51:24;;;;;;;5.38;1.98;;;16.50;99.90;;;;;;4991268;28;20210;-74
2023/07/29 00:53:50;;;;;;;7.03;2.03;;;;;;;;;;4991406;28;20251;-74
2023/07/29 00:56:16;;;;;;;6.32;2.10;;;16.40;99.90;;;;;;4991389;28;20179;-72
2023/07/29 00:58:43;;;;;;;6.13;1.90;;;;;;;;;;4991470;28;20676;-74
2023/07/29 01:01:08;;;;;;;4.85;2.00;;;16.50;99.90;;;;;;4991594;28;20233;-75
2023/07/29 01:03:35;;;;;;;4.93;2.20;;;16.50;99.90;;;;;;4989972;28;20564;-74
2023/07/29 01:06:49;;;;;;;8.40;2.10;;;16.50;99.90;;;;;;5006225;28;20178;-74
2023/07/29 01:09:37;;;;;;;5.80;2.30;;;16.50;99.90;;;;;;4991082;28;20219;-74
2023/07/29 01:12:22;;;;;;;4.03;1.83;;;16.50;99.90;;;;;;4990969;28;20577;-74
2023/07/29 01:15:09;;;;;;;7.88;2.05;;;16.50;99.90;;;;;;4991284;28;20183;-73
2023/07/29 01:18:00;;;;;;;6.47;2.30;;;16.60;99.90;;;;;;4991167;28;20186;-73
2023/07/29 01:20:26;;;;;;;8.02;2.70;;;16.60;99.90;;;;;;4991068;28;20181;-73
2023/07/29 01:22:51;;;;;;;7.25;2.13;;;16.60;99.90;;;;;;4991211;28;20168;-73
2023/07/29 01:25:17;;;;;;;4.50;2.22;;;16.60;99.90;;;;;;4991319;28;20186;-73
2023/07/29 01:27:45;;;;;;;7.18;2.80;;;16.50;99.90;;;;;;4990950;28;20171;-74
2023/07/29 01:30:11;;;;;;;7.53;2.30;;;16.80;99.90;;;;;;4989740;28;20175;-74
2023/07/29 01:32:46;;;;;;;6.35;2.70;;;16.50;99.90;;;;;;4990866;28;20229;-73
2023/07/29 01:35:25;;;;;;;6.65;2.20;;;16.50;99.90;;;;;;4989618;28;20174;-73
2023/07/29 01:37:59;;;;;;;7.32;3.00;;;16.50;99.90;;;;;;4990815;28;20163;-75
2023/07/29 01:40:28;;;;;;;6.28;2.90;;;16.50;99.90;;;;;;4991180;28;20202;-73
2023/07/29 01:42:54;;;;;;;8.93;2.88;;;16.50;99.90;;;;;;5005973;28;20233;-73
2023/07/29 01:45:24;;;;;;;5.18;2.30;;;16.50;99.90;;;;;;5006540;28;20645;-75
2023/07/29 01:47:49;;;;;;;6.15;2.30;;;16.50;99.90;;;;;;5013916;28;20198;-73
2023/07/29 01:50:15;;;;;;;7.40;2.40;;;;;;;;;;5013774;28;20634;-73
2023/07/29 01:52:41;;;;;;;4.82;2.45;;;16.40;99.90;;;;;;5013982;28;20267;-73
2023/07/29 01:55:07;;;;;;;7.88;3.00;;;16.40;99.90;;;;;;5013760;28;20638;-73
2023/07/29 01:57:32;;;;;;;4.72;2.10;;;16.40;99.90;;;;;;5013593;28;20174;-73
2023/07/29 01:59:59;;;;;;;7.97;2.40;;;;;;;;;;5013657;28;20167;-74
2023/07/29 02:02:24;;;;;;;7.57;2.80;;;16.40;99.90;;;;;;5012088;28;20317;-74
2023/07/29 02:04:52;;;;;;;8.05;2.58;;;16.40;99.90;;;;;;5013876;28;20262;-73
2023/07/29 02:07:19;;;;;;;6.00;2.50;;;16.40;99.90;;;;;;5013362;28;20178;-73
2023/07/29 02:09:44;;;;;;;6.00;2.40;;;16.30;99.90;;;;;;5013227;28;20249;-73
2023/07/29 02:12:10;;;;;;;3.83;2.03;;;16.30;99.90;;;;;;5013335;28;20673;-71
2023/07/29 02:14:36;;;;;;;4.88;2.40;;;16.30;99.90;;;;;;5013274;28;20641;-73
2023/07/29 02:17:01;;;;;;;6.00;2.20;;;16.30;99.90;;;;;;5013627;28;20178;-73
2023/07/29 02:19:27;;;;;;;7.47;2.33;;;16.30;99.90;;;;;;5013390;28;20173;-73
2023/07/29 02:21:52;;;;;;;7.68;2.30;;;16.40;99.90;;;;;;5013353;28;20205;-73
2023/07/29 02:24:18;;;;;;;5.85;2.28;;;16.30;99.90;;;;;;5013267;28;20174;-75
2023/07/29 02:26:44;;;;;;;11.73;2.50;;;16.30;99.90;;;;;;5013290;28;20170;-73
2023/07/29 02:29:10;;;;;;;3.40;1.67;;;;;;;;;;5013254;28;20640;-73
2023/07/29 02:31:37;;;;;;;9.85;2.15;;;16.50;99.90;;;;;;5013098;28;20210;-74
2023/07/29 02:34:03;;;;;;;10.77;2.50;;;16.30;99.90;;;;;;5013191;28;20166;-74
2023/07/29 02:36:28;;;;;;;11.30;2.35;;;16.40;99.90;;;;;;5013060;28;20224;-74
2023/07/29 02:38:54;;;;;;;4.28;2.10;;;16.40;99.90;;;;;;5012959;28;20171;-72
2023/07/29 02:41:20;;;;;;;5.15;2.00;;;16.40;99.90;;;;;;5012937;28;20639;-73
2023/07/29 02:43:49;;;;;;;5.82;2.10;;;16.40;99.90;;;;;;5012779;28;20503;-73
2023/07/29 02:46:14;;;;;;;7.80;2.17;;;16.30;99.90;;;;;;5013197;28;20182;-73
2023/07/29 02:48:41;;;;;;;7.70;2.42;;;16.30;99.90;;;;;;5012853;28;20163;-73
2023/07/29 02:51:07;;;;;;;5.88;1.92;;;16.40;99.90;;;;;;5012864;28;20233;-73
2023/07/29 02:53:32;;;;;;;8.05;2.67;;;16.40;99.90;;;;;;5012867;28;20674;-73
2023/07/29 02:55:58;;;;;;;8.25;2.45;;;16.30;99.90;;;;;;5011586;28;20675;-73
2023/07/29 02:58:26;;;;;;;8.50;2.42;;;16.30;99.90;;;;;;5012654;28;20167;-72
2023/07/29 03:00:51;;;;;;;8.32;2.20;;;16.30;99.90;;;;;;5011293;28;20183;-72
2023/07/29 03:03:19;;;;;;;7.85;2.40;;;16.30;99.90;;;;;;5012005;28;20229;-74
2023/07/29 03:05:44;;;;;;;8.70;2.22;;;16.30;99.90;;;;;;5011899;28;20175;-72
2023/07/29 03:08:10;;;;;;;4.95;2.20;;;;;;;;;;4998466;28;20187;-72
2023/07/29 03:10:36;;;;;;;4.53;1.73;;;16.20;99.90;;;;;;4991157;28;20226;-72
2023/07/29 03:13:02;;;;;;;7.60;2.10;;;;;;;;;;5005663;28;20182;-72
2023/07/29 03:15:28;;;;;;;5.85;2.08;;;16.30;99.90;;;;;;5001714;28;20226;-72
2023/07/29 03:17:54;;;;;;;7.95;2.22;;;16.30;99.90;;;;;;4992645;28;20583;-74
2023/07/29 03:20:20;;;;;;;7.95;2.08;;;16.20;99.90;;;;;;4992518;28;20214;-72
2023/07/29 03:22:45;;;;;;;5.13;2.10;;;16.20;99.90;;;;;;5003432;28;20183;-72
2023/07/29 03:25:11;;;;;;;7.75;2.13;;;16.20;99.90;;;;;;5009666;28;20653;-72
2023/07/29 03:27:37;;;;;;;8.30;2.20;;;;;;;;;;5002630;28;20599;-74
2023/07/29 03:30:07;;;;;;;7.40;2.00;;;16.20;99.90;;;;;;5008763;28;20542;-72
2023/07/29 03:32:33;;;;;;;6.53;1.85;;;14.90;99.90;;;;;;5001155;28;20206;-73
2023/07/29 03:34:58;;;;;;;6.85;2.00;;;16.20;99.90;;;;;;5011311;28;20182;-72
2023/07/29 03:37:24;;;;;;;4.43;1.77;;;16.20;99.90;;;;;;5007966;28;20179;-73
2023/07/29 03:39:51;;;;;;;5.65;2.30;;;16.30;99.90;;;;;;4992160;28;20209;-73
2023/07/29 03:42:17;;;;;;;8.82;1.73;;;16.10;99.90;;;;;;4998612;28;20179;-73
2023/07/29 03:44:43;;;;;;;4.85;2.28;;;;;;;;;;5001281;28;20642;-72
2023/07/29 03:47:09;;;;;;;11.23;2.10;;;16.30;99.90;;;;;;4992262;28;20206;-73
2023/07/29 03:49:34;;;;;;;5.05;1.95;;;16.10;99.90;;;;;;4992686;28;20199;-73
2023/07/29 03:52:00;;;;;;;8.07;2.40;;;16.10;99.90;;;;;;5010959;28;20498;-73
2023/07/29 03:54:26;;;;;;;8.50;1.90;;;16.10;99.90;;;;;;5009060;28;20229;-73
2023/07/29 03:56:51;;;;;;;3.60;2.00;;;16.10;99.90;;;;;;4997862;28;20217;-73
2023/07/29 03:59:17;;;;;;;5.40;2.03;;;16.10;99.90;;;;;;5007532;28;20591;-73
2023/07/29 04:01:43;;;;;;;5.57;1.75;;;;;;;;;;4999138;28;20290;-73
2023/07/29 04:04:09;;;;;;;7.38;1.73;;;16.10;99.90;;;;;;4991960;28;20187;-74
2023/07/29 04:06:35;;;;;;;5.10;2.00;;;16.10;99.90;;;;;;4990281;28;20245;-73
2023/07/29 04:09:00;;;;;;;8.02;2.28;;;16.20;99.90;;;;;;5008021;28;20287;-73
2023/07/29 04:11:26;;;;;;;9.32;2.10;;;16.10;99.90;;;;;;4994681;28;20441;-74
2023/07/29 04:13:52;;;;;;;6.55;2.13;;;16.10;99.90;;;;;;4996037;28;20759;-73
2023/07/29 04:16:17;;;;;;;4.18;1.92;;;16.20;99.90;;;;;;5008097;28;20506;-73
2023/07/29 04:18:43;;;;;;;6.20;2.30;;;16.20;99.90;;;;;;5011097;28;20174;-73
2023/07/29 04:21:09;;;;;;;4.63;1.95;;;16.20;99.90;;;;;;5011049;28;20177;-73
2023/07/29 04:23:35;;;;;;;2.80;1.80;;;16.20;99.90;;;;;;5010427;28;20194;-72
2023/07/29 04:26:00;;;;;;;5.82;1.95;;;16.20;99.90;;;;;;4991504;28;20179;-73
2023/07/29 04:28:26;;;;;;;6.50;1.92;;;16.20;99.90;;;;;;4991572;28;20175;-73
2023/07/29 04:30:52;;;;;;;6.75;1.95;;;16.30;99.90;;;;;;5000302;28;20201;-74
2023/07/29 04:33:17;;;;;;;6.97;2.20;;;15.90;99.90;;;;;;5011113;28;20182;-72
2023/07/29 04:35:43;;;;;;;8.00;2.33;;;15.80;99.90;;;;;;5011211;28;20192;-72
2023/07/29 04:38:08;;;;;;;12.65;2.20;;;15.90;99.90;;;;;;5011013;28;20629;-72
2023/07/29 04:40:34;;;;;;;6.32;2.05;;;16.60;99.90;;;;;;5011076;28;20181;-73
2023/07/29 04:43:03;;;;;;;11.27;1.90;;;18.20;99.90;;;;;;5011079;28;20180;-73
2023/07/29 04:45:29;;;;;;;11.98;2.03;;;15.90;99.90;;;;;;5011065;28;20657;-73
2023/07/29 04:47:55;;;;;;;9.27;1.75;;;15.60;99.90;;;;;;5011166;28;20174;-72
2023/07/29 04:50:21;;;;;;;9.13;2.42;;;15.60;99.90;;;;;;5011018;28;20181;-73
2023/07/29 04:52:46;;;;;;;10.73;2.17;;;15.70;99.90;;;;;;5010869;28;20213;-73
2023/07/29 04:55:12;;;;;;;6.00;1.67;;;15.50;99.90;;;;;;5009590;28;20171;-74
2023/07/29 04:57:37;;;;;;;8.88;2.00;;;15.50;99.90;;;;;;5010947;28;20174;-73
2023/07/29 05:00:03;;;;;;;10.32;2.13;;;15.50;99.90;;;;;;5011077;28;20171;-73
2023/07/29 05:02:29;;;;;;;8.60;2.05;;;15.40;99.90;;;;;;5009588;28;20279;-73
2023/07/29 05:04:55;;;;;;;9.60;2.17;;;15.40;99.90;;;;;;5010892;28;20175;-73
2023/07/29 05:07:20;;;;;;;8.25;2.00;;;15.30;99.90;;;;;;5010693;28;20633;-74
2023/07/29 05:09:46;;;;;;;8.60;2.08;;;15.30;99.90;;;;;;5010490;28;20215;-72
2023/07/29 05:12:12;;;;;;;10.80;2.13;;;15.30;99.90;;;;;;5007611;28;20286;-73
2023/07/29 05:14:38;;;;;;;4.72;1.77;;;15.30;99.90;;;;;;4998499;28;20614;-73
2023/07/29 05:17:04;;;;;;;6.82;2.13;;;15.20;99.90;;;;;;5003864;28;20229;-74
2023/07/29 05:19:30;;;;;;;8.02;2.33;;;;;;;;;;4993270;28;20253;-74
2023/07/29 05:21:56;;;;;;;6.90;1.92;;;15.30;99.90;;;;;;5005922;28;20177;-73
2023/07/29 05:24:23;;;;;;;6.88;2.25;;;15.30;99.90;;;;;;4994820;28;20179;-74
2023/07/29 05:26:48;;;;;;;9.10;2.05;;;15.30;99.90;;;;;;5011652;28;20186;-73
2023/07/29 05:29:14;;;;;;;6.57;2.08;;;15.40;99.90;;;;;;5014250;28;20203;-73
2023/07/29 05:31:40;;;;;;;8.43;2.47;;;15.40;99.90;;;;;;5002500;28;20681;-72
2023/07/29 05:34:05;;;;;;;8.80;2.20;;;15.50;99.90;;;;;;5014262;28;20261;-73
2023/07/29 05:36:31;;;;;;;9.15;2.17;;;15.70;99.90;;;;;;5004500;28;20209;-73
2023/07/29 05:38:56;;;;;;;6.20;2.38;;;15.60;99.90;;;;;;4993288;28;20167;-73
2023/07/29 05:41:22;;;;;;;7.40;2.15;;;15.70;99.90;;;;;;4994659;28;20225;-73
2023/07/29 05:43:48;;;;;;;9.48;2.50;;;15.60;99.90;;;;;;4994607;28;20536;-73
2023/07/29 05:46:13;;;;;;;10.57;2.70;;;15.80;99.90;;;;;;4994475;28;20179;-74
2023/07/29 05:48:39;;;;;;;9.57;2.22;;;15.80;99.90;;;;;;5003534;28;20637;-73
2023/07/29 05:51:07;;;;;;;5.93;1.98;;;15.80;99.90;;;;;;5013864;28;20673;-72
2023/07/29 05:53:33;;;;;;;4.88;2.20;;;15.90;99.90;;;;;;5013841;28;20178;-73
2023/07/29 05:55:59;;;;;;;7.85;2.33;;;15.80;99.90;;;;;;5012733;28;20182;-73
2023/07/29 05:58:24;;;;;;;8.80;2.35;;;15.90;99.90;;;;;;5013780;28;20262;-73
2023/07/29 06:00:50;;;;;;;10.02;2.60;;;16.00;99.90;;;;;;5013861;28;20225;-72
2023/07/29 06:03:15;;;;;;;10.35;2.20;;;16.00;99.90;;;;;;5013732;28;20701;-73
2023/07/29 06:05:41;;;;;;;8.68;2.78;;;16.10;99.90;;;;;;5013190;28;20695;-74
2023/07/29 06:08:08;;;;;;;7.47;2.47;;;16.10;99.90;;;;;;5001453;28;20187;-75
2023/07/29 06:10:34;;;;;;;5.85;2.45;;;16.10;99.90;;;;;;5012234;28;20223;-75
2023/07/29 06:12:59;;;;;;;7.40;2.45;;;16.00;99.90;;;;;;5013682;28;20206;-74
2023/07/29 06:15:25;;;;;;;9.23;2.25;;;16.10;99.90;;;;;;5013669;28;20535;-74
2023/07/29 06:17:50;;;;;;;11.02;2.63;;;16.10;99.90;;;;;;5012730;28;20205;-72
2023/07/29 06:20:16;;;;;;;8.65;2.40;;;16.20;99.90;;;;;;5013434;28;20171;-72
2023/07/29 06:22:43;;;;;;;8.23;2.45;;;16.20;99.90;;;;;;5012717;28;20637;-77
2023/07/29 06:25:08;;;;;;;4.75;2.30;;;16.30;99.90;;;;;;5012606;28;20171;-72
2023/07/29 06:27:34;;;;;;;9.93;2.60;;;16.40;99.90;;;;;;5008471;28;20235;-72
2023/07/29 06:29:59;;;;;;;6.78;2.22;;;16.50;99.90;;;;;;5012862;28;20653;-74
2023/07/29 06:32:25;;;;;;;7.63;2.10;;;16.70;99.90;;;;;;5011515;28;20213;-72
2023/07/29 06:34:51;;;;;;;9.35;2.22;;;17.00;99.90;;;;;;5012459;28;20179;-73
2023/07/29 06:37:17;;;;;;;8.50;2.33;;;16.90;99.90;;;;;;5003448;28;20182;-73
2023/07/29 06:39:43;;;;;;;7.63;2.22;;;17.00;99.90;;;;;;5004410;28;20253;-73
2023/07/29 06:42:08;;;;;;;10.82;2.38;;;17.10;99.90;;;;;;5012884;28;20202;-73
2023/07/29 06:44:34;;;;;;;6.53;2.17;;;17.20;99.90;;;;;;5012795;28;20171;-74
2023/07/29 06:46:59;;;;;;;9.85;2.28;;;17.20;99.90;;;;;;5004528;28;20234;-75
2023/07/29 06:49:25;;;;;;;7.50;1.92;;;17.20;99.90;;;;;;4991736;28;20227;-75
2023/07/29 06:51:50;;;;;;;6.45;1.98;;;16.80;99.90;;;;;;5003775;28;20691;-74
2023/07/29 06:54:17;;;;;;;10.63;2.08;;;17.00;99.90;;;;;;5012644;28;20171;-77
2023/07/29 06:56:43;;;;;;;4.85;2.10;;;16.90;99.90;;;;;;5011909;28;20269;-76
2023/07/29 06:59:08;;;;;;;8.98;2.65;;;16.90;99.90;;;;;;5012710;28;20596;-74
2023/07/29 07:01:34;;;;;;;9.25;1.92;;;16.90;99.90;;;;;;5012431;28;20179;-74
2023/07/29 07:04:00;;;;;;;7.78;1.92;;;15.10;99.90;;;;;;5011171;28;20174;-73
2023/07/29 07:06:25;;;;;;;7.28;2.05;;;16.90;99.90;;;;;;5007733;28;20190;-74
2023/07/29 07:08:52;;;;;;;5.53;1.90;;;;;;;;;;5012466;28;20205;-74
2023/07/29 07:11:18;;;;;;;7.60;1.98;;;16.90;99.90;;;;;;5012092;28;20214;-73
2023/07/29 07:13:44;;;;;;;8.07;2.15;;;17.00;99.90;;;;;;5010875;28;20649;-73
2023/07/29 07:16:09;;;;;;;6.00;1.88;;;17.00;99.90;;;;;;5003634;28;20186;-75
2023/07/29 07:18:35;;;;;;;9.75;2.33;;;17.10;99.90;;;;;;4992612;28;20179;-73
2023/07/29 07:21:01;;;;;;;9.70;2.42;;;17.00;99.90;;;;;;4993062;28;20661;-75
2023/07/29 07:23:26;;;;;;;9.57;2.70;;;17.10;99.90;;;;;;5001283;28;20205;-75
2023/07/29 07:25:52;;;;;;;5.20;1.40;;;17.10;99.90;;;;;;4998527;28;20194;-75
2023/07/29 07:28:17;;;;;;;5.00;1.92;;;17.20;99.90;;;;;;4992853;28;20265;-75
2023/07/29 07:30:43;;;;;;;10.85;2.30;;;17.60;99.90;;;;;;5011835;28;20660;-74
2023/07/29 07:33:09;;;;;;;4.22;1.73;;;17.60;99.90;;;;;;5011270;28;20224;-73
2023/07/29 07:35:35;;;;;;;10.98;2.08;;;17.60;99.90;;;;;;5011705;28;20217;-74
2023/07/29 07:38:03;;;;;;;6.15;1.60;;;17.70;99.90;;;;;;5011718;28;20178;-73
2023/07/29 07:40:30;;;;;;;8.82;2.22;;;17.80;99.90;;;;;;5012067;28;20701;-74
2023/07/29 07:42:56;;;;;;;6.90;1.92;;;17.80;99.90;;;;;;5009059;28;20182;-73
2023/07/29 07:45:21;;;;;;;10.15;1.80;;;17.50;99.90;;;;;;5007353;28;20232;-75
2023/07/29 07:47:47;;;;;;;9.23;2.00;;;17.70;99.90;;;;;;5011495;28;20701;-74
2023/07/29 07:50:14;;;;;;;11.77;1.90;;;17.60;99.90;;;;;;5010560;28;20273;-74
2023/07/29 07:52:39;;;;;;;8.70;1.98;;;17.60;99.90;;;;;;4998221;28;20245;-77
2023/07/29 07:55:05;;;;;;;6.38;1.73;;;17.70;99.90;;;;;;5011576;28;20182;-74
2023/07/29 07:57:31;;;;;;;6.63;1.95;;;17.70;99.90;;;;;;5011909;28;20201;-76
2023/07/29 07:59:57;;;;;;;9.40;2.08;;;17.80;99.90;;;;;;5011807;28;20645;-73
2023/07/29 08:02:22;;;;;;;10.48;1.60;;;17.80;99.90;;;;;;5002292;28;20261;-73
2023/07/29 08:04:48;;;;;;;14.02;2.20;;;17.90;99.90;;;;;;4992121;28;20274;-74
2023/07/29 08:07:14;;;;;;;7.63;1.75;;;17.90;99.90;;;;;;4990566;28;20175;-74
2023/07/29 08:09:40;;;;;;;11.07;1.92;;;;;;;;;;5008200;28;20245;-75
2023/07/29 08:12:06;;;;;;;9.88;2.10;;;18.30;99.90;;;;;;5011251;28;20271;-74
2023/07/29 08:14:31;;;;;;;5.10;1.67;;;18.60;99.90;;;;;;5010111;28;20707;-73
2023/07/29 08:16:57;;;;;;;12.20;2.30;;;18.70;99.90;;;;;;5011154;28;20641;-71
2023/07/29 08:19:23;;;;;;;10.45;2.00;;;18.80;99.90;;;;;;5002591;28;20182;-75
2023/07/29 08:21:48;;;;;;;9.57;2.10;;;18.70;99.90;;;;;;4991631;28;20167;-74
2023/07/29 08:24:14;;;;;;;10.48;1.85;;;18.50;99.90;;;;;;4991639;28;20630;-75
2023/07/29 08:26:40;;;;;;;11.40;2.13;;;18.50;99.90;;;;;;4991721;28;20187;-74
2023/07/29 08:29:05;;;;;;;7.28;2.53;;;18.50;99.90;;;;;;4993232;28;20722;-72
2023/07/29 08:31:33;;;;;;;8.13;2.15;;;18.10;99.90;;;;;;4991476;28;20277;-73
2023/07/29 08:33:59;;;;;;;10.93;2.35;;;18.20;99.90;;;;;;4991669;28;20209;-70
2023/07/29 08:36:25;;;;;;;8.57;2.30;;;18.20;99.90;;;;;;4991459;28;20175;-71
2023/07/29 08:38:51;;;;;;;6.28;1.92;;;18.10;99.90;;;;;;4995759;28;20167;-71
2023/07/29 08:41:22;;;;;;;4.47;1.77;;;18.20;99.90;;;;;;4998718;28;20534;-71
2023/07/29 08:43:52;;;;;;;10.07;2.15;;;18.30;99.90;;;;;;4991804;28;20569;-72
2023/07/29 08:46:19;;;;;;;12.70;1.85;;;18.40;99.90;;;;;;5008354;28;20183;-73
2023/07/29 08:48:46;;;;;;;11.15;1.67;;;18.40;99.90;;;;;;5009717;28;20557;-73
2023/07/29 08:51:12;;;;;;;7.20;1.70;;;18.20;99.90;;;;;;4997941;28;20238;-71
2023/07/29 08:53:39;;;;;;;7.15;1.52;;;18.50;99.90;;;;;;4999290;28;20185;-71
2023/07/29 08:56:06;;;;;;;9.38;1.42;;;18.70;99.90;;;;;;5014759;28;20182;-73
2023/07/29 08:58:32;;;;;;;9.65;1.73;;;18.80;99.90;;;;;;5013922;28;20167;-72
2023/07/29 09:00:58;;;;;;;10.48;1.77;;;19.20;99.90;;;;;;4995053;28;20269;-73
2023/07/29 09:03:24;;;;;;;9.85;1.48;;;19.90;99.90;;;;;;4995039;28;20218;-72
2023/07/29 09:05:50;;;;;;;15.57;2.53;;;19.10;99.90;;;;;;4995005;28;20179;-73
2023/07/29 09:08:17;;;;;;;7.85;1.60;;;19.70;99.90;;;;;;4994851;28;20685;-73
2023/07/29 09:10:42;;;;;;;9.43;1.58;;;19.50;99.90;;;;;;4995659;28;20222;-73
2023/07/29 09:13:08;;;;;;;14.35;1.88;;;19.90;99.90;;;;;;5000046;28;20215;-72
2023/07/29 09:15:36;;;;;;;4.82;1.40;;;20.20;99.90;;;;;;5012253;28;20732;-73
2023/07/29 09:18:19;;;;;;;13.05;2.38;;;20.10;99.90;;;;;;5018740;28;20183;-74
2023/07/29 09:20:49;;;;;;;9.38;1.90;;;19.90;99.90;;;;;;5012570;28;20661;-73
2023/07/29 09:23:15;;;;;;;17.10;2.67;;;19.50;99.90;;;;;;5007636;28;20178;-73
2023/07/29 09:25:42;;;;;;;13.10;1.83;;;19.10;99.90;;;;;;4993944;28;20171;-74
2023/07/29 09:28:13;;;;;;;9.73;1.67;;;19.10;99.90;;;;;;4994848;28;20198;-74
2023/07/29 09:30:39;;;;;;;12.15;1.95;;;19.00;99.90;;;;;;5000563;28;20206;-74
2023/07/29 09:33:05;;;;;;;10.68;1.75;;;19.10;99.90;;;;;;5008363;28;20669;-75
2023/07/29 09:35:33;;;;;;;10.57;2.47;;;19.10;99.90;;;;;;5005527;28;20178;-75
2023/07/29 09:37:59;;;;;;;16.95;1.95;;;19.20;99.90;;;;;;5011762;28;20306;-75
2023/07/29 09:40:25;;;;;;;12.27;1.60;;;19.40;99.90;;;;;;5003564;28;20666;-75
2023/07/29 09:42:52;;;;;;;8.68;1.88;;;19.80;99.90;;;;;;5004306;28;20186;-75
2023/07/29 09:45:26;;;;;;;11.40;2.03;;;20.20;99.90;;;;;;5013818;28;20179;-76
2023/07/29 09:47:53;;;;;;;13.05;1.92;;;20.90;99.90;;;;;;5013939;28;20178;-76
2023/07/29 09:50:19;;;;;;;12.88;1.90;;;21.20;99.90;;;;;;5016057;28;20175;-74
2023/07/29 09:52:45;;;;;;;5.55;1.15;;;21.10;99.90;;;;;;5015802;28;20216;-75
2023/07/29 09:55:18;;;;;;;10.45;1.65;;;21.00;99.90;;;;;;5012083;28;20174;-74
2023/07/29 09:57:44;;;;;;;12.50;1.70;;;21.50;99.90;;;;;;5013940;28;20181;-74
2023/07/29 10:00:13;;;;;;;7.63;1.35;;;21.10;99.90;;;;;;5013819;28;20257;-75
2023/07/29 10:02:43;;;;;;;11.73;2.00;;;21.30;99.90;;;;;;5013626;28;20190;-73
2023/07/29 10:05:09;;;;;;;10.68;1.75;;;21.60;99.90;;;;;;5011642;28;20197;-77
2023/07/29 10:07:39;;;;;;;11.25;1.85;;;22.00;99.90;;;;;;5013533;28;20643;-76
2023/07/29 10:10:06;;;;;;;21.83;2.92;;;22.20;99.90;;;;;;5013522;28;20261;-75
2023/07/29 10:12:32;;;;;;;6.75;1.30;;;22.60;99.90;;;;;;5013205;28;20328;-74
2023/07/29 10:15:06;;;;;;;11.63;1.73;;;22.10;99.90;;;;;;5013277;28;20174;-75
2023/07/29 10:17:34;;;;;;;13.68;1.90;;;21.70;99.90;;;;;;5012021;28;20269;-77
2023/07/29 10:20:00;;;;;;;11.32;1.55;;;21.10;99.90;;;;;;5013318;28;20174;-76
2023/07/29 10:22:35;;;;;;;11.63;1.77;;;20.90;99.90;;;;;;5013124;28;20171;-74
2023/07/29 10:25:05;;;;;;;9.52;1.55;;;20.60;99.90;;;;;;5013209;28;20235;-74
2023/07/29 10:27:43;;;;;;;14.65;1.60;;;20.80;99.90;;;;;;5013316;28;20170;-75
2023/07/29 10:30:12;;;;;;;11.68;1.98;;;20.90;99.90;;;;;;5014914;28;20167;-73
2023/07/29 10:32:41;;;;;;;8.77;1.70;;;21.00;99.90;;;;;;5012939;28;20213;-77
2023/07/29 10:35:07;;;;;;;10.13;1.73;;;21.30;99.90;;;;;;5011804;28;20845;-75
2023/07/29 10:37:33;;;;;;;9.02;1.73;;;21.60;99.90;;;;;;5011835;28;20197;-75
2023/07/29 10:39:58;;;;;;;11.10;1.73;;;21.90;99.90;;;;;;5012986;28;20764;-75
2023/07/29 10:42:24;;;;;;;10.75;1.70;;;22.10;99.90;;;;;;5012705;28;20253;-73
2023/07/29 10:44:52;;;;;;;11.52;1.83;;;21.80;99.90;;;;;;5012738;28;20193;-74
2023/07/29 10:47:25;;;;;;;10.70;2.30;;;22.30;99.90;;;;;;5012615;28;20276;-73
2023/07/29 10:49:55;;;;;;;8.38;1.92;;;22.60;99.90;;;;;;5012811;28;20174;-75
2023/07/29 10:52:34;;;;;;;11.00;2.15;;;22.60;99.90;;;;;;5012696;28;20209;-75
2023/07/29 10:55:00;;;;;;;15.55;1.85;;;22.60;99.90;;;;;;5012688;28;20178;-74
2023/07/29 10:57:37;;;;;;;10.15;1.98;;;22.00;99.90;;;;;;5012525;28;20174;-76
2023/07/29 11:00:04;;;;;;;14.20;2.63;;;22.10;99.90;;;;;;5012877;28;20166;-74
2023/07/29 11:02:37;;;;;;;13.32;2.28;;;21.50;99.90;;;;;;5012601;28;20217;-74
2023/07/29 11:05:17;;;;;;;10.65;1.58;;;21.60;99.90;;;;;;5012471;28;20186;-74
2023/07/29 11:07:45;;;;;;;14.57;1.85;;;21.20;99.90;;;;;;5014553;28;20172;-78
2023/07/29 11:10:12;;;;;;;14.15;2.17;;;21.30;99.90;;;;;;5012143;28;20218;-76
2023/07/29 11:12:48;;;;;;;14.65;2.17;;;21.60;99.90;;;;;;5012367;28;20743;-77
2023/07/29 11:15:21;;;;;;;10.77;2.13;;;21.70;99.90;;;;;;5012315;28;20540;-75
2023/07/29 11:17:50;;;;;;;14.60;2.03;;;21.70;99.90;;;;;;5011324;28;20174;-74
2023/07/29 11:20:17;;;;;;;11.80;2.13;;;22.40;99.90;;;;;;5012095;28;20178;-74
2023/07/29 11:22:43;;;;;;;13.90;2.80;;;22.30;99.90;;;;;;5010782;28;20539;-75
2023/07/29 11:25:14;;;;;;;7.57;1.48;;;22.90;99.90;;;;;;5011961;28;20220;-77
2023/07/29 11:27:40;;;;;;;13.68;2.30;;;23.10;99.90;;;;;;5012249;28;20269;-78
2023/07/29 11:30:10;;;;;;;14.93;2.38;;;22.80;99.90;;;;;;5012133;28;20175;-78
2023/07/29 11:32:37;;;;;;;13.73;2.35;;;23.80;99.90;;;;;;5011863;28;20218;-76
2023/07/29 11:35:09;;;;;;;16.00;2.30;;;24.30;99.90;;;;;;5011723;28;20175;-73
2023/07/29 11:37:46;;;;;;;11.70;1.85;;;23.00;99.90;;;;;;5063416;28;20559;-78
2023/07/29 11:40:16;;;;;;;11.05;1.98;;;23.60;99.90;;;;;;5055625;28;20667;-75
2023/07/29 11:42:42;;;;;;;6.20;1.58;;;;;;;;;;5048026;28;20369;-74
2023/07/29 11:45:09;;;;;;;7.65;1.67;;;24.40;99.90;;;;;;5048290;28;20197;-74
2023/07/29 11:47:38;;;;;;;11.05;2.38;;;24.60;99.90;;;;;;5054826;28;20172;-74
2023/07/29 11:50:05;;;;;;;8.30;1.83;;;24.60;99.90;;;;;;5058877;28;20269;-75
2023/07/29 11:52:35;;;;;;;8.23;1.40;;;24.40;99.90;;;;;;5047875;28;20173;-74
2023/07/29 11:55:03;;;;;;;7.18;1.60;;;24.30;99.90;;;;;;5047998;28;20711;-75
2023/07/29 11:57:29;;;;;;;5.90;1.60;;;23.80;99.90;;;;;;5050703;28;20686;-74
2023/07/29 11:59:55;;;;;;;6.88;1.70;;;24.20;99.90;;;;;;5038697;28;20279;-71
2023/07/29 12:02:21;;;;;;;10.27;2.08;;;24.60;99.90;;;;;;5047756;28;20687;-72
2023/07/29 12:04:48;;;;;;;12.15;2.05;;;24.60;99.90;;;;;;5046599;28;20178;-74
2023/07/29 12:07:15;;;;;;;13.40;2.50;;;24.60;99.90;;;;;;5057333;28;20173;-79
2023/07/29 12:09:42;;;;;;;10.77;1.80;;;24.30;99.90;;;;;;5067300;28;20169;-75
2023/07/29 12:12:08;;;;;;;9.45;2.70;;;24.30;99.90;;;;;;5067376;28;20255;-79
2023/07/29 12:14:34;;;;;;;12.55;2.28;;;24.70;99.90;;;;;;5067118;28;20636;-75
2023/07/29 12:17:05;;;;;;;10.40;2.70;;;24.70;99.90;;;;;;5061803;28;20289;-75
2023/07/29 12:19:36;;;;;;;8.48;1.50;;;25.00;99.90;;;;;;5051199;28;20174;-76
2023/07/29 12:22:02;;;;;;;8.32;1.50;;;23.70;99.90;;;;;;5049455;28;20180;-76
2023/07/29 12:24:30;;;;;;;9.02;1.60;;;23.40;99.90;;;;;;5048500;28;20531;-76
2023/07/29 12:26:56;;;;;;;12.57;1.60;;;23.30;99.90;;;;;;5027404;28;20174;-77
2023/07/29 12:29:22;;;;;;;11.27;1.85;;;22.90;99.90;;;;;;5046439;28;20266;-74
2023/07/29 12:31:48;;;;;;;9.68;1.60;;;23.20;99.90;;;;;;5066952;28;20200;-76
2023/07/29 12:34:26;;;;;;;7.40;1.45;;;24.10;99.90;;;;;;5061536;28;20168;-75
2023/07/29 12:36:54;;;;;;;9.80;1.80;;;24.20;99.90;;;;;;5046318;28;20271;-76
2023/07/29 12:39:30;;;;;;;9.23;2.22;;;24.10;99.90;;;;;;5050981;28;20632;-76
2023/07/29 12:41:58;;;;;;;11.88;1.73;;;24.80;99.90;;;;;;5047371;28;20275;-76
2023/07/29 12:44:30;;;;;;;7.75;2.00;;;24.80;99.90;;;;;;5060474;28;20236;-74
2023/07/29 12:46:56;;;;;;;8.90;1.70;;;24.60;99.90;;;;;;5052587;28;20181;-75